Time;durP1;ratioP1;P1;durP2;ratioP2;P2;SDS_P1;SDS_P2;PMS_P1;PMS_P2;Temp;Humidity;BMP_temperature;BMP_pressure;BME280_temperature;BME280_humidity;BME280_pressure;Samples;Min_cycle;Max_cycle;Signal;HPM_P1;HPM_P2
2021/12/24 00:00:21;;;;;;;14.18;4.95;;;6.30;99.90;;;;;;4232479;28;20051;-87
2021/12/24 00:02:21;;;;;;;11.77;5.10;;;6.80;99.90;;;;;;4232415;28;20048;-87
2021/12/24 00:04:24;;;;;;;12.45;4.80;;;6.10;99.90;;;;;;4236463;27;20527;-87
2021/12/24 00:06:25;;;;;;;13.63;4.97;;;5.70;99.90;;;;;;4249801;27;20507;-87
2021/12/24 00:08:26;;;;;;;9.98;4.15;;;6.10;99.90;;;;;;4249230;27;20043;-87
2021/12/24 00:10:30;;;;;;;12.35;4.63;;;6.10;99.90;;;;;;4263044;27;20100;-87
2021/12/24 00:12:34;;;;;;;11.07;4.57;;;6.20;99.90;;;;;;4232725;28;20055;-87
2021/12/24 00:14:36;;;;;;;7.80;3.63;;;6.20;99.90;;;;;;4232516;28;20055;-87
2021/12/24 00:16:44;;;;;;;9.48;4.57;;;6.80;99.90;;;;;;4216180;28;20063;-87
2021/12/24 00:18:50;;;;;;;11.48;4.40;;;6.10;99.90;;;;;;4232758;28;20676;-87
2021/12/24 00:36:49;;;;;;;11.98;3.65;;;6.20;99.90;;;;;;4250646;27;20009;-87
2021/12/24 00:38:51;;;;;;;12.25;4.35;;;6.20;99.90;;;;;;4249777;27;20043;-85
2021/12/24 00:40:55;;;;;;;10.35;4.03;;;6.60;99.90;;;;;;4250573;27;20464;-86
2021/12/24 00:42:56;;;;;;;10.18;4.20;;;6.30;99.90;;;;;;4249373;27;20519;-86
2021/12/24 00:44:58;;;;;;;9.75;3.90;;;6.20;99.90;;;;;;4232751;28;20059;-86
2021/12/24 00:46:59;;;;;;;12.25;4.05;;;6.30;99.90;;;;;;4241701;27;20055;-86
2021/12/24 00:49:01;;;;;;;10.65;4.28;;;6.30;99.90;;;;;;4233787;28;20147;-86
2021/12/24 00:55:02;;;;;;;9.35;3.47;;;6.30;99.90;;;;;;4232499;28;20462;-86
2021/12/24 00:55:26;;;;;;;10.25;3.80;;;6.30;99.90;;;;;;4231165;28;20543;-86
2021/12/24 00:57:27;;;;;;;8.57;3.05;;;6.70;99.90;;;;;;4231770;28;20098;-86
2021/12/24 00:59:28;;;;;;;8.05;4.03;;;6.30;99.90;;;;;;4227969;28;20048;-86
2021/12/24 01:01:29;;;;;;;7.57;3.90;;;6.50;99.90;;;;;;4231520;28;20039;-86
2021/12/24 01:03:29;;;;;;;7.20;3.15;;;6.30;99.90;;;;;;4231990;28;20480;-86
2021/12/24 01:05:31;;;;;;;6.88;3.17;;;6.30;99.90;;;;;;4230505;28;20101;-86
2021/12/24 01:07:32;;;;;;;8.88;3.92;;;6.40;99.90;;;;;;4230202;28;20047;-86
2021/12/24 01:09:32;;;;;;;7.95;3.60;;;6.40;99.90;;;;;;4240700;27;20411;-86
2021/12/24 01:11:34;;;;;;;8.85;3.65;;;6.40;99.90;;;;;;4247388;27;20047;-86
2021/12/24 01:13:35;;;;;;;11.32;4.05;;;6.80;99.90;;;;;;4230475;28;20048;-86
2021/12/24 01:15:42;;;;;;;8.43;3.42;;;7.00;99.90;;;;;;4228147;28;20111;-86
2021/12/24 01:17:51;;;;;;;10.00;4.22;;;6.40;99.90;;;;;;4228982;28;20499;-86
2021/12/24 01:19:57;;;;;;;10.77;3.95;;;6.30;99.90;;;;;;4230216;28;20054;-86
2021/12/24 01:24:30;;;;;;;10.88;3.60;;;6.30;99.90;;;;;;4231236;28;20082;-86
2021/12/24 01:26:45;;;;;;;8.85;3.55;;;6.30;99.90;;;;;;4232269;28;20035;-86
2021/12/24 01:38:26;;;;;;;7.25;3.05;;;6.30;99.90;;;;;;4246829;27;20055;-86
2021/12/24 01:40:50;;;;;;;6.85;2.92;;;6.50;99.90;;;;;;4249483;27;20503;-86
2021/12/24 01:42:49;;;;;;;7.82;3.65;;;6.30;99.90;;;;;;4248346;27;20043;-86
2021/12/24 01:44:50;;;;;;;6.50;3.00;;;6.40;99.90;;;;;;4214239;28;20131;-86
2021/12/24 01:46:50;;;;;;;6.70;2.75;;;6.60;99.90;;;;;;4231417;28;20500;-86
2021/12/24 01:48:52;;;;;;;6.97;3.00;;;7.50;99.90;;;;;;4215422;28;20252;-86
2021/12/24 01:50:54;;;;;;;6.22;2.67;;;6.60;99.90;;;;;;4231405;28;20104;-86
2021/12/24 01:52:56;;;;;;;5.90;2.85;;;6.50;99.90;;;;;;4224525;28;20503;-86
2021/12/24 01:54:56;;;;;;;6.47;2.83;;;7.10;99.90;;;;;;4267708;27;20383;-86
2021/12/24 01:56:57;;;;;;;6.57;3.00;;;6.60;99.90;;;;;;4234532;28;20055;-86
2021/12/24 01:58:58;;;;;;;6.47;2.63;;;7.60;99.90;;;;;;4249338;28;20028;-86
2021/12/24 02:00:59;;;;;;;6.38;2.60;;;7.40;99.90;;;;;;4266938;27;20038;-86
2021/12/24 02:03:00;;;;;;;6.63;2.35;;;6.60;99.90;;;;;;4248630;28;20044;-86
2021/12/24 02:05:02;;;;;;;5.28;2.47;;;7.20;99.90;;;;;;4265943;27;20081;-86
2021/12/24 02:07:03;;;;;;;3.47;1.88;;;6.60;99.90;;;;;;4250943;27;20039;-86
2021/12/24 02:09:05;;;;;;;3.53;1.95;;;6.70;99.90;;;;;;4232288;28;20484;-86
2021/12/24 02:11:06;;;;;;;4.53;2.10;;;6.70;99.90;;;;;;4231629;28;20105;-86
2021/12/24 02:13:09;;;;;;;5.55;2.38;;;7.10;99.90;;;;;;4231683;28;20085;-86
2021/12/24 02:15:24;;;;;;;6.00;2.20;;;7.20;99.90;;;;;;4247779;28;20565;-86
2021/12/24 02:29:19;;;;;;;4.45;1.58;;;6.80;99.90;;;;;;4233365;28;20345;-86
2021/12/24 02:31:27;;;;;;;2.75;1.45;;;7.60;99.90;;;;;;4219439;28;20050;-86
2021/12/24 02:33:27;;;;;;;5.20;1.92;;;6.80;99.90;;;;;;4249012;28;20062;-86
2021/12/24 02:35:28;;;;;;;4.38;1.90;;;7.50;99.90;;;;;;4243717;28;20047;-87
2021/12/24 02:37:29;;;;;;;3.90;2.00;;;6.90;99.90;;;;;;4248276;28;20055;-87
2021/12/24 02:39:30;;;;;;;5.70;1.60;;;7.00;99.90;;;;;;4265772;27;20117;-87
2021/12/24 02:41:31;;;;;;;5.30;2.10;;;6.90;99.90;;;;;;4247422;28;20126;-87
2021/12/24 02:43:32;;;;;;;5.00;1.83;;;6.90;99.90;;;;;;4265954;27;20447;-86
2021/12/24 02:45:35;;;;;;;3.33;1.58;;;7.40;99.90;;;;;;4230651;28;20047;-86
2021/12/24 02:47:44;;;;;;;5.00;1.83;;;7.00;99.90;;;;;;4265689;27;20084;-88
2021/12/24 02:54:09;;;;;;;3.25;1.83;;;7.00;99.90;;;;;;4248658;27;20126;-86
2021/12/24 02:56:11;;;;;;;5.25;2.50;;;7.00;99.90;;;;;;4229383;28;20051;-86
2021/12/24 02:58:11;;;;;;;3.70;1.58;;;7.50;99.90;;;;;;4232914;28;20106;-87
2021/12/24 03:00:19;;;;;;;3.03;1.67;;;7.00;99.90;;;;;;4216854;28;20516;-87
2021/12/24 03:02:20;;;;;;;2.75;1.40;;;7.00;99.90;;;;;;4216441;28;20130;-87
2021/12/24 03:04:22;;;;;;;5.88;1.92;;;7.00;99.90;;;;;;4251531;27;20058;-87
2021/12/24 03:06:30;;;;;;;3.25;1.70;;;7.00;99.90;;;;;;4252004;27;20043;-86
2021/12/24 03:08:31;;;;;;;5.68;2.00;;;7.10;99.90;;;;;;4232871;28;20113;-86
2021/12/24 03:10:32;;;;;;;4.15;2.15;;;7.10;99.90;;;;;;4233204;28;20130;-86
2021/12/24 03:12:34;;;;;;;5.50;2.05;;;6.30;99.90;;;;;;4233190;28;20055;-86
2021/12/24 03:14:34;;;;;;;6.78;2.30;;;7.10;99.90;;;;;;4233071;28;20046;-87
2021/12/24 03:16:37;;;;;;;3.50;2.03;;;7.20;99.90;;;;;;4233357;28;20043;-87
2021/12/24 03:18:40;;;;;;;5.90;2.40;;;7.80;99.90;;;;;;4216446;28;20040;-86
2021/12/24 03:20:41;;;;;;;7.97;2.55;;;7.10;99.90;;;;;;4233998;28;20062;-86
2021/12/24 03:23:04;;;;;;;5.70;2.40;;;7.20;99.90;;;;;;4238676;28;20048;-86
2021/12/24 03:25:06;;;;;;;7.65;2.80;;;7.20;99.90;;;;;;4238805;28;20134;-87
2021/12/24 03:27:08;;;;;;;8.20;3.05;;;7.20;99.90;;;;;;4234356;28;20044;-87
2021/12/24 03:29:13;;;;;;;7.60;2.50;;;7.80;99.90;;;;;;4217998;28;20052;-86
2021/12/24 03:31:14;;;;;;;9.10;2.83;;;7.20;99.90;;;;;;4215940;28;20159;-86
2021/12/24 03:33:14;;;;;;;11.23;3.60;;;7.90;99.90;;;;;;4251212;27;20039;-87
2021/12/24 03:35:15;;;;;;;14.07;3.88;;;7.30;99.90;;;;;;4238059;27;20047;-87
2021/12/24 03:37:16;;;;;;;11.00;3.70;;;7.30;99.90;;;;;;4227582;28;20048;-87
2021/12/24 03:39:18;;;;;;;12.38;3.63;;;7.40;99.90;;;;;;4215584;28;20079;-86
2021/12/24 03:41:20;;;;;;;15.93;3.55;;;7.30;99.90;;;;;;4198229;28;20098;-86
2021/12/24 03:43:23;;;;;;;17.25;4.80;;;7.40;99.90;;;;;;4214697;28;20123;-87
2021/12/24 03:45:35;;;;;;;21.95;3.80;;;7.30;99.90;;;;;;4216015;28;20153;-87
2021/12/24 03:47:39;;;;;;;18.75;4.00;;;7.40;99.90;;;;;;4197625;28;20044;-87
2021/12/24 03:49:56;;;;;;;24.08;4.47;;;7.90;99.90;;;;;;4213278;28;20496;-86
2021/12/24 03:52:15;;;;;;;34.17;5.57;;;7.40;99.90;;;;;;4215390;28;20101;-86
2021/12/24 03:56:37;;;;;;;19.15;4.65;;;7.40;99.90;;;;;;4228183;28;20040;-86
2021/12/24 03:58:38;;;;;;;23.90;4.70;;;7.50;99.90;;;;;;4224296;28;20063;-86
2021/12/24 04:00:38;;;;;;;23.63;5.20;;;7.50;99.90;;;;;;4216090;28;20048;-86
2021/12/24 04:02:40;;;;;;;38.25;5.25;;;8.00;99.90;;;;;;4214251;28;20078;-86
2021/12/24 04:04:50;;;;;;;37.20;5.60;;;8.10;99.90;;;;;;4220835;28;20055;-86
2021/12/24 04:06:51;;;;;;;28.95;5.57;;;7.70;99.90;;;;;;4213561;28;20060;-86
2021/12/24 04:08:52;;;;;;;33.92;5.85;;;8.10;99.90;;;;;;4231062;28;20487;-86
2021/12/24 04:10:53;;;;;;;24.75;4.93;;;8.50;99.90;;;;;;4213968;28;20511;-87
2021/12/24 04:12:53;;;;;;;33.50;5.28;;;7.60;99.90;;;;;;4196939;28;20052;-86
2021/12/24 04:14:56;;;;;;;24.80;5.85;;;7.60;99.90;;;;;;4211907;28;20404;-86
2021/12/24 04:16:56;;;;;;;29.60;4.95;;;7.60;99.90;;;;;;4215991;28;20071;-87
2021/12/24 04:25:45;;;;;;;24.92;5.30;;;7.70;99.90;;;;;;4214695;28;20047;-86
2021/12/24 04:27:45;;;;;;;21.88;5.05;;;7.80;99.90;;;;;;4213988;28;20127;-86
2021/12/24 04:29:47;;;;;;;38.38;5.90;;;7.70;99.90;;;;;;4213003;28;20040;-86
2021/12/24 04:31:57;;;;;;;22.23;5.03;;;7.80;99.90;;;;;;4213135;28;20462;-87
2021/12/24 04:34:02;;;;;;;24.35;5.55;;;7.80;99.90;;;;;;4218742;28;20062;-86
2021/12/24 04:38:44;;;;;;;22.20;5.32;;;8.70;99.90;;;;;;4227850;28;20048;-86
2021/12/24 04:52:31;;;;;;;24.15;5.97;;;8.50;99.90;;;;;;4232681;27;19933;-87
2021/12/24 05:01:47;;;;;;;;;;;8.10;99.90;;;;;;4230455;28;20124;-86
2021/12/24 05:03:51;;;;;;;24.77;7.10;;;8.30;99.90;;;;;;4234813;27;19989;-86
2021/12/24 05:06:05;;;;;;;36.75;8.55;;;8.10;99.90;;;;;;4231930;28;20055;-87
2021/12/24 05:10:13;;;;;;;28.88;7.75;;;8.10;99.90;;;;;;4243586;27;20075;-86
2021/12/24 05:12:13;;;;;;;33.53;7.70;;;8.60;99.90;;;;;;4231038;28;20122;-87
2021/12/24 05:14:15;;;;;;;30.17;7.60;;;;;;;;;;4232815;28;20507;-87
2021/12/24 05:16:38;;;;;;;37.45;8.30;;;8.20;99.90;;;;;;4231166;28;20471;-86
2021/12/24 05:23:18;;;;;;;28.13;7.25;;;8.70;99.90;;;;;;4244253;27;20492;-86
2021/12/24 05:25:19;;;;;;;28.60;8.43;;;8.10;99.90;;;;;;4247864;27;20078;-87
2021/12/24 05:27:20;;;;;;;31.30;8.00;;;8.20;99.90;;;;;;4231482;28;20040;-87
2021/12/24 05:29:27;;;;;;;31.20;8.73;;;8.20;99.90;;;;;;4247029;27;20496;-86
2021/12/24 05:31:29;;;;;;;29.23;9.38;;;8.20;99.90;;;;;;4248331;27;20043;-87
2021/12/24 05:33:30;;;;;;;34.08;9.15;;;8.50;99.90;;;;;;4248064;27;20081;-86
2021/12/24 05:35:31;;;;;;;30.60;8.35;;;8.60;99.90;;;;;;4247398;27;20053;-87
2021/12/24 05:37:32;;;;;;;41.05;9.05;;;8.50;99.90;;;;;;4247804;27;20538;-87
2021/12/24 05:39:34;;;;;;;31.13;8.85;;;8.20;99.90;;;;;;4247655;27;20250;-87
2021/12/24 05:41:35;;;;;;;33.70;8.65;;;8.20;99.90;;;;;;4216071;28;20044;-87
2021/12/24 05:43:36;;;;;;;31.75;8.85;;;8.30;99.90;;;;;;4231358;28;20038;-87
2021/12/24 05:45:38;;;;;;;35.92;9.77;;;9.30;99.90;;;;;;4214029;28;20567;-87
2021/12/24 05:47:39;;;;;;;37.88;8.18;;;9.30;99.90;;;;;;4213617;28;20135;-87
2021/12/24 05:49:42;;;;;;;26.30;8.15;;;8.70;99.90;;;;;;4231541;28;20114;-87
2021/12/24 05:51:43;;;;;;;36.15;8.52;;;8.30;99.90;;;;;;4247416;27;20051;-87
2021/12/24 05:53:43;;;;;;;30.27;8.25;;;8.90;99.90;;;;;;4231486;28;20123;-87
2021/12/24 05:55:44;;;;;;;30.65;7.85;;;8.40;99.90;;;;;;4213541;28;20407;-87
2021/12/24 05:57:45;;;;;;;30.00;8.07;;;8.30;99.90;;;;;;4232407;27;20035;-87
2021/12/24 05:59:46;;;;;;;26.92;7.00;;;8.30;99.90;;;;;;4241996;27;20138;-87
2021/12/24 06:01:47;;;;;;;30.42;7.43;;;9.10;99.90;;;;;;4231492;28;20040;-87
2021/12/24 06:03:48;;;;;;;24.40;6.60;;;9.40;99.90;;;;;;4230446;28;20047;-87
2021/12/24 06:05:49;;;;;;;24.40;7.68;;;8.30;99.90;;;;;;4230072;28;20043;-87
2021/12/24 06:07:49;;;;;;;27.60;7.35;;;8.30;99.90;;;;;;4231080;28;20046;-87
2021/12/24 06:09:50;;;;;;;29.25;6.82;;;9.00;99.90;;;;;;4230991;28;20082;-87
2021/12/24 06:11:51;;;;;;;28.02;7.93;;;8.80;99.90;;;;;;4232613;28;20070;-87
2021/12/24 06:13:55;;;;;;;27.17;6.10;;;9.40;99.90;;;;;;4240088;28;20121;-87
2021/12/24 06:15:57;;;;;;;27.08;6.82;;;8.30;99.90;;;;;;4252479;28;20047;-87
2021/12/24 06:17:59;;;;;;;27.65;5.93;;;8.30;99.90;;;;;;4237201;28;20043;-87
2021/12/24 06:19:59;;;;;;;33.20;6.05;;;8.30;99.90;;;;;;4247706;28;20101;-87
2021/12/24 06:22:00;;;;;;;31.13;7.53;;;8.20;99.90;;;;;;4249104;27;20043;-87
2021/12/24 06:24:01;;;;;;;29.00;6.35;;;8.30;99.90;;;;;;4248727;28;20434;-87
2021/12/24 06:26:03;;;;;;;24.10;5.72;;;8.50;99.90;;;;;;4247353;28;20044;-87
2021/12/24 06:28:05;;;;;;;21.30;6.40;;;9.40;99.90;;;;;;4247488;28;20510;-87
2021/12/24 06:30:07;;;;;;;16.55;4.45;;;8.30;99.90;;;;;;4249690;27;20870;-87
2021/12/24 06:32:08;;;;;;;31.73;6.60;;;8.20;99.90;;;;;;4251517;27;20058;-87
2021/12/24 06:34:10;;;;;;;22.42;5.05;;;8.20;99.90;;;;;;4252239;27;20035;-87
2021/12/24 06:36:11;;;;;;;27.20;4.53;;;8.90;99.90;;;;;;4251662;27;20562;-87
2021/12/24 06:38:14;;;;;;;17.25;4.75;;;8.60;99.90;;;;;;4250613;27;20527;-87
2021/12/24 06:40:15;;;;;;;24.52;4.93;;;8.20;99.90;;;;;;4234229;28;20138;-87
2021/12/24 06:42:16;;;;;;;15.55;4.30;;;8.90;99.90;;;;;;4233716;28;20059;-87
2021/12/24 06:44:17;;;;;;;19.80;5.78;;;8.20;99.90;;;;;;4250546;27;20035;-86
2021/12/24 06:46:17;;;;;;;15.68;4.18;;;8.20;99.90;;;;;;4241869;27;20453;-87
2021/12/24 06:48:18;;;;;;;19.38;4.15;;;8.20;99.90;;;;;;4236911;27;20513;-87
2021/12/24 06:50:20;;;;;;;18.90;4.25;;;8.20;99.90;;;;;;4252194;27;20487;-87
2021/12/24 06:52:21;;;;;;;13.95;3.92;;;8.10;99.90;;;;;;4234391;28;20083;-87
2021/12/24 06:54:22;;;;;;;23.33;4.82;;;8.10;99.90;;;;;;4231946;28;20054;-87
2021/12/24 06:56:24;;;;;;;14.80;4.13;;;8.40;99.90;;;;;;4229504;28;20545;-87
2021/12/24 06:58:25;;;;;;;18.27;3.97;;;8.20;99.90;;;;;;4249031;27;20058;-86
2021/12/24 07:00:27;;;;;;;16.83;3.85;;;8.10;99.90;;;;;;4233583;28;20039;-87
2021/12/24 07:02:28;;;;;;;14.82;3.75;;;8.10;99.90;;;;;;4234943;28;20447;-87
2021/12/24 07:04:29;;;;;;;21.98;5.28;;;8.90;99.90;;;;;;4237803;27;20043;-87
2021/12/24 07:06:30;;;;;;;13.90;4.53;;;9.00;99.90;;;;;;4223478;28;20421;-87
2021/12/24 07:08:32;;;;;;;21.52;5.57;;;8.10;99.90;;;;;;4232123;28;20212;-87
2021/12/24 07:10:33;;;;;;;16.50;3.58;;;8.20;99.90;;;;;;4225738;28;20047;-87
2021/12/24 07:12:34;;;;;;;16.58;3.83;;;8.10;99.90;;;;;;4232080;28;20066;-87
2021/12/24 07:14:37;;;;;;;12.57;3.63;;;8.60;99.90;;;;;;4228340;28;20120;-85
2021/12/24 07:16:38;;;;;;;13.13;4.03;;;8.00;99.90;;;;;;4222504;28;20043;-85
2021/12/24 07:18:40;;;;;;;13.32;4.13;;;8.10;99.90;;;;;;4240238;27;20059;-85
2021/12/24 07:20:41;;;;;;;14.77;3.03;;;8.30;99.90;;;;;;4234728;28;20821;-86
2021/12/24 07:22:42;;;;;;;14.75;3.50;;;7.90;99.90;;;;;;4239303;27;20910;-84
2021/12/24 07:24:44;;;;;;;10.10;3.33;;;7.90;99.90;;;;;;4241303;27;20062;-85
2021/12/24 07:26:44;;;;;;;8.15;2.70;;;7.90;99.90;;;;;;4232408;28;20109;-86
2021/12/24 07:28:58;;;;;;;7.85;2.60;;;8.20;99.90;;;;;;4245920;27;20071;-91
2021/12/24 07:31:00;;;;;;;11.30;2.63;;;8.10;99.90;;;;;;4218505;28;20112;-87
2021/12/24 07:33:09;;;;;;;8.18;2.70;;;7.80;99.90;;;;;;4234566;28;20104;-88
2021/12/24 07:35:11;;;;;;;8.48;2.35;;;7.70;99.90;;;;;;4237515;28;20515;-88
2021/12/24 07:37:12;;;;;;;7.25;2.33;;;8.00;99.90;;;;;;4237351;28;20051;-88
2021/12/24 07:39:38;;;;;;;10.65;2.63;;;7.70;99.90;;;;;;4232407;28;20130;-88
2021/12/24 07:41:40;;;;;;;13.50;2.65;;;7.60;99.90;;;;;;4232225;28;20139;-88
2021/12/24 07:43:42;;;;;;;6.00;1.95;;;7.60;99.90;;;;;;4234228;27;20043;-88
2021/12/24 07:45:45;;;;;;;8.68;2.05;;;7.60;99.90;;;;;;4232341;28;20050;-88
2021/12/24 07:47:55;;;;;;;4.40;1.42;;;7.60;99.90;;;;;;4232960;28;20244;-88
2021/12/24 07:50:02;;;;;;;5.95;1.77;;;7.70;99.90;;;;;;4243405;27;20047;-88
2021/12/24 07:52:08;;;;;;;7.80;1.63;;;7.50;99.90;;;;;;4223381;28;20417;-88
2021/12/24 07:54:10;;;;;;;1.58;0.98;;;7.50;99.90;;;;;;4233306;28;20070;-87
2021/12/24 07:56:12;;;;;;;4.35;1.50;;;7.50;99.90;;;;;;4235697;28;20054;-88
2021/12/24 07:58:15;;;;;;;8.10;1.63;;;8.60;99.90;;;;;;4233572;27;20112;-89
2021/12/24 08:00:17;;;;;;;11.88;1.98;;;7.60;99.90;;;;;;4231366;28;20035;-89
2021/12/24 08:02:23;;;;;;;4.47;2.25;;;7.50;99.90;;;;;;4235032;28;20051;-89
2021/12/24 08:04:25;;;;;;;5.53;1.63;;;7.20;99.90;;;;;;4222718;28;20546;-89
2021/12/24 08:06:27;;;;;;;5.10;2.13;;;7.50;99.90;;;;;;4250443;27;20085;-89
2021/12/24 08:08:28;;;;;;;5.45;1.58;;;8.50;99.90;;;;;;4240261;27;20043;-89
2021/12/24 08:10:34;;;;;;;9.00;2.67;;;7.50;99.90;;;;;;4248474;27;20564;-89
2021/12/24 08:12:36;;;;;;;7.43;2.72;;;7.50;99.90;;;;;;4236576;27;20495;-89
2021/12/24 08:14:37;;;;;;;5.80;3.05;;;7.70;99.90;;;;;;4245112;27;20686;-89
2021/12/24 08:16:39;;;;;;;11.20;3.60;;;7.50;99.90;;;;;;4232968;28;20134;-89
2021/12/24 08:18:43;;;;;;;13.85;3.17;;;8.30;99.90;;;;;;4226865;28;20078;-89
2021/12/24 08:20:43;;;;;;;16.05;3.40;;;8.40;99.90;;;;;;4216358;28;20436;-89
2021/12/24 08:22:44;;;;;;;12.40;3.00;;;8.60;99.90;;;;;;4223200;28;20087;-89
2021/12/24 08:24:45;;;;;;;8.48;3.03;;;8.20;99.90;;;;;;4250212;27;20043;-89
2021/12/24 08:26:47;;;;;;;8.25;3.20;;;6.90;99.90;;;;;;4233234;28;20054;-89
2021/12/24 08:28:49;;;;;;;14.15;3.67;;;8.20;99.90;;;;;;4233749;28;20051;-89
2021/12/24 08:30:50;;;;;;;7.68;3.00;;;7.60;99.90;;;;;;4246327;27;20047;-89
2021/12/24 08:32:52;;;;;;;7.10;2.80;;;8.90;99.90;;;;;;4217357;28;20048;-89
2021/12/24 08:34:55;;;;;;;8.70;2.90;;;7.60;99.90;;;;;;4225827;28;20484;-90
2021/12/24 08:36:56;;;;;;;10.07;3.38;;;7.60;99.90;;;;;;4234286;28;20054;-89
2021/12/24 08:38:57;;;;;;;11.93;3.35;;;7.50;99.90;;;;;;4251542;27;20055;-89
2021/12/24 08:40:59;;;;;;;7.40;3.45;;;7.60;99.90;;;;;;4210060;28;20432;-88
2021/12/24 08:43:01;;;;;;;10.13;2.42;;;7.50;99.90;;;;;;4217820;28;20070;-89
2021/12/24 08:45:06;;;;;;;6.82;2.55;;;7.50;99.90;;;;;;4219323;28;20094;-89
2021/12/24 08:47:14;;;;;;;12.27;4.03;;;7.40;99.90;;;;;;4236310;28;20530;-88
2021/12/24 08:49:17;;;;;;;20.25;4.00;;;7.60;99.90;;;;;;4220679;28;20044;-89
2021/12/24 08:51:29;;;;;;;14.98;3.78;;;8.60;99.90;;;;;;4236204;27;20055;-89
2021/12/24 08:53:54;;;;;;;13.45;4.57;;;8.60;99.90;;;;;;4251604;27;20534;-89
2021/12/24 08:55:56;;;;;;;12.98;3.65;;;7.50;99.90;;;;;;4237680;28;20054;-88
2021/12/24 08:58:03;;;;;;;20.65;4.88;;;7.90;99.90;;;;;;4262436;27;20076;-89
2021/12/24 09:00:13;;;;;;;16.35;4.22;;;8.10;99.90;;;;;;4252981;28;20034;-89
2021/12/24 09:02:14;;;;;;;13.45;4.20;;;7.60;99.90;;;;;;4235781;28;20052;-88
2021/12/24 09:04:16;;;;;;;15.57;4.15;;;8.40;99.90;;;;;;4234466;28;20116;-89
2021/12/24 09:06:36;;;;;;;12.30;4.25;;;7.60;99.90;;;;;;4229638;28;20071;-89
2021/12/24 09:08:42;;;;;;;13.65;4.43;;;7.60;99.90;;;;;;4228870;28;20104;-89
2021/12/24 09:10:51;;;;;;;8.30;3.22;;;8.40;99.90;;;;;;4243095;28;20047;-89
2021/12/24 09:13:30;;;;;;;3.38;1.58;;;7.60;99.90;;;;;;4240202;28;20051;-91
2021/12/24 09:15:33;;;;;;;2.03;1.20;;;7.50;99.90;;;;;;4236608;28;20592;-90
2021/12/24 09:17:34;;;;;;;2.10;1.13;;;8.00;99.90;;;;;;4232657;28;20135;-87
2021/12/24 09:19:36;;;;;;;2.97;1.48;;;8.00;99.90;;;;;;4233791;27;20515;-89
2021/12/24 09:21:40;;;;;;;2.08;1.20;;;7.80;99.90;;;;;;4234937;28;20043;-89
2021/12/24 09:23:46;;;;;;;2.65;1.45;;;7.00;99.90;;;;;;4237703;28;20036;-89
2021/12/24 09:25:49;;;;;;;3.05;1.50;;;7.00;99.90;;;;;;4233839;28;20072;-89
2021/12/24 09:27:51;;;;;;;3.92;1.42;;;6.80;99.90;;;;;;4218549;28;20123;-89
2021/12/24 09:29:52;;;;;;;3.40;1.90;;;5.90;99.90;;;;;;4218700;28;20032;-89
2021/12/24 09:31:56;;;;;;;6.25;1.30;;;6.80;99.90;;;;;;4232919;28;20047;-89
2021/12/24 09:33:57;;;;;;;4.32;1.58;;;7.20;99.90;;;;;;4218918;28;20055;-88
2021/12/24 09:35:59;;;;;;;2.67;1.50;;;7.20;99.90;;;;;;4216955;28;20548;-89
2021/12/24 09:38:02;;;;;;;5.60;1.67;;;6.70;99.90;;;;;;4232119;28;20089;-88
2021/12/24 09:40:06;;;;;;;2.03;1.20;;;6.60;99.90;;;;;;4234686;28;20044;-89
2021/12/24 09:42:09;;;;;;;2.22;1.20;;;6.60;99.90;;;;;;4231820;28;20427;-88
2021/12/24 09:44:13;;;;;;;3.22;1.63;;;6.60;99.90;;;;;;4238896;27;20414;-89
2021/12/24 09:46:16;;;;;;;3.33;1.75;;;7.10;99.90;;;;;;4215591;28;20044;-90
2021/12/24 09:48:17;;;;;;;3.95;1.80;;;7.40;99.90;;;;;;4236151;27;20545;-89
2021/12/24 09:50:22;;;;;;;2.20;1.40;;;7.60;99.90;;;;;;4249830;27;20509;-89
2021/12/24 09:52:24;;;;;;;3.33;1.20;;;6.50;99.90;;;;;;4232358;28;20062;-88
2021/12/24 09:54:25;;;;;;;5.95;1.65;;;6.50;99.90;;;;;;4249174;27;20527;-89
2021/12/24 09:56:26;;;;;;;2.80;1.75;;;6.50;99.90;;;;;;4250296;27;20047;-89
2021/12/24 09:58:27;;;;;;;3.22;1.60;;;7.60;99.90;;;;;;4248986;27;20047;-89
2021/12/24 10:00:29;;;;;;;3.08;1.50;;;7.10;99.90;;;;;;4250516;27;20107;-89
2021/12/24 10:02:43;;;;;;;3.40;1.60;;;7.00;99.90;;;;;;4233890;28;20128;-90
2021/12/24 10:04:46;;;;;;;2.30;1.38;;;7.60;99.90;;;;;;4225715;28;20044;-89
2021/12/24 10:07:16;;;;;;;2.38;1.45;;;6.50;99.90;;;;;;4215537;28;20059;-88
2021/12/24 10:09:17;;;;;;;2.20;1.05;;;6.50;99.90;;;;;;4231916;28;20044;-87
2021/12/24 10:11:23;;;;;;;2.10;1.25;;;6.50;99.90;;;;;;4231438;28;20044;-87
2021/12/24 10:13:42;;;;;;;2.17;1.10;;;6.50;99.90;;;;;;4214295;28;20103;-86
2021/12/24 10:16:22;;;;;;;2.08;1.13;;;6.50;99.90;;;;;;4228159;28;20082;-88
2021/12/24 10:18:27;;;;;;;2.72;1.08;;;6.30;99.90;;;;;;4187855;28;20436;-89
2021/12/24 10:20:28;;;;;;;2.42;1.20;;;7.00;99.90;;;;;;4231796;28;20051;-89
2021/12/24 10:22:41;;;;;;;2.00;1.10;;;6.70;99.90;;;;;;4217963;28;20443;-88
2021/12/24 10:24:42;;;;;;;2.28;1.25;;;6.50;99.90;;;;;;4246179;28;20433;-88
2021/12/24 10:26:52;;;;;;;2.15;0.90;;;6.50;99.90;;;;;;4237378;28;20050;-88
2021/12/24 10:29:02;;;;;;;2.05;1.00;;;6.40;99.90;;;;;;4229786;28;20051;-88
2021/12/24 10:31:03;;;;;;;1.55;0.90;;;5.70;99.90;;;;;;4248766;28;20046;-88
2021/12/24 10:33:11;;;;;;;3.08;1.30;;;6.40;99.90;;;;;;4249286;28;20160;-88
2021/12/24 10:35:22;;;;;;;2.75;1.35;;;6.30;99.90;;;;;;4242803;28;20054;-88
2021/12/24 10:37:26;;;;;;;2.60;1.40;;;7.20;99.90;;;;;;4246421;28;20059;-86
2021/12/24 10:39:41;;;;;;;2.35;1.30;;;7.40;99.90;;;;;;4249615;28;20530;-87
2021/12/24 10:41:44;;;;;;;2.80;1.30;;;6.40;99.90;;;;;;4244341;28;20052;-84
2021/12/24 10:43:45;;;;;;;2.65;1.10;;;6.40;99.90;;;;;;4229256;28;20101;-85
2021/12/24 10:45:46;;;;;;;3.60;1.42;;;6.70;99.90;;;;;;4236053;28;20107;-85
2021/12/24 10:47:47;;;;;;;3.83;1.42;;;6.80;99.90;;;;;;4246417;28;20051;-84
2021/12/24 10:49:58;;;;;;;2.50;1.40;;;6.30;99.90;;;;;;4248341;27;20039;-84
2021/12/24 10:54:21;;;;;;;2.05;1.10;;;6.30;99.90;;;;;;4230500;28;20044;-84
2021/12/24 10:56:28;;;;;;;2.25;1.30;;;6.40;99.90;;;;;;4231184;28;20069;-84
2021/12/24 10:58:30;;;;;;;4.28;1.50;;;7.50;99.90;;;;;;4235329;28;20047;-85
2021/12/24 11:00:42;;;;;;;3.00;1.50;;;6.20;99.90;;;;;;4235763;28;20123;-84
2021/12/24 11:02:48;;;;;;;2.92;1.48;;;5.50;99.90;;;;;;4226237;28;20047;-84
2021/12/24 11:04:48;;;;;;;2.35;1.13;;;6.20;99.90;;;;;;4231460;28;20058;-86
2021/12/24 11:06:52;;;;;;;2.17;1.25;;;6.60;99.90;;;;;;4230796;28;20084;-85
2021/12/24 11:08:54;;;;;;;3.38;1.13;;;6.70;99.90;;;;;;4232996;28;20128;-85
2021/12/24 11:11:00;;;;;;;4.55;1.40;;;6.10;99.90;;;;;;4222277;28;20059;-85
2021/12/24 11:13:12;;;;;;;4.15;1.83;;;6.50;99.90;;;;;;4230186;28;20552;-85
2021/12/24 11:15:24;;;;;;;3.50;1.42;;;7.20;99.90;;;;;;4235600;27;20044;-85
2021/12/24 11:17:38;;;;;;;5.93;1.20;;;6.20;99.90;;;;;;4244591;27;20036;-85
2021/12/24 11:19:51;;;;;;;2.80;1.45;;;6.20;99.90;;;;;;4250708;27;20047;-85
2021/12/24 11:22:03;;;;;;;4.13;1.40;;;5.80;99.90;;;;;;4237397;27;20572;-85
2021/12/24 11:24:04;;;;;;;2.67;1.17;;;7.00;99.90;;;;;;4234698;28;20503;-85
2021/12/24 11:26:17;;;;;;;4.38;1.70;;;6.20;99.90;;;;;;4233612;28;20051;-86
2021/12/24 11:28:19;;;;;;;4.15;1.20;;;6.20;99.90;;;;;;4233816;28;20483;-85
2021/12/24 11:30:21;;;;;;;2.13;1.30;;;6.20;99.90;;;;;;4233646;28;20055;-85
2021/12/24 11:32:24;;;;;;;2.92;1.48;;;6.20;99.90;;;;;;4235157;28;20054;-85
2021/12/24 11:34:26;;;;;;;3.35;1.40;;;6.60;99.90;;;;;;4233364;28;20048;-85
2021/12/24 11:36:29;;;;;;;2.63;1.30;;;7.40;99.90;;;;;;4245183;27;20112;-85
2021/12/24 11:38:36;;;;;;;2.08;1.15;;;6.20;99.90;;;;;;4249431;27;20051;-85
2021/12/24 11:40:37;;;;;;;1.98;1.10;;;6.20;99.90;;;;;;4233394;28;20039;-86
2021/12/24 11:42:42;;;;;;;2.38;1.40;;;6.20;99.90;;;;;;4233053;28;20044;-86
2021/12/24 11:44:43;;;;;;;2.65;1.23;;;6.60;99.90;;;;;;4231728;28;20051;-86
2021/12/24 11:46:44;;;;;;;3.60;1.30;;;6.20;99.90;;;;;;4260933;27;20546;-86
2021/12/24 11:48:51;;;;;;;2.45;1.35;;;6.10;99.90;;;;;;4256081;27;20046;-86
2021/12/24 11:50:52;;;;;;;2.70;1.08;;;6.20;99.90;;;;;;4252874;27;20070;-87
2021/12/24 11:53:01;;;;;;;2.65;1.15;;;6.50;99.90;;;;;;4235438;27;20411;-86
2021/12/24 11:55:03;;;;;;;5.90;1.70;;;6.60;99.90;;;;;;4235222;28;20100;-87
2021/12/24 11:57:16;;;;;;;4.10;1.30;;;5.20;99.90;;;;;;4242699;28;20048;-87
2021/12/24 11:59:33;;;;;;;2.85;1.40;;;6.10;99.90;;;;;;4236229;28;20051;-87
2021/12/24 12:01:38;;;;;;;3.97;1.30;;;6.40;99.90;;;;;;4241016;27;20047;-88
2021/12/24 12:03:49;;;;;;;1.60;1.00;;;6.10;99.90;;;;;;4231723;28;20488;-85
2021/12/24 12:05:49;;;;;;;6.03;1.10;;;5.20;99.90;;;;;;4232454;28;20504;-86
2021/12/24 12:08:12;;;;;;;2.88;1.30;;;6.10;99.90;;;;;;4248648;27;20043;-85
2021/12/24 12:11:08;;;;;;;3.45;1.48;;;6.80;99.90;;;;;;4242919;27;20411;-85
2021/12/24 12:13:46;;;;;;;3.42;1.23;;;6.10;99.90;;;;;;4181892;28;20048;-85
2021/12/24 12:15:57;;;;;;;4.38;1.80;;;6.20;99.90;;;;;;4239099;27;20047;-85
2021/12/24 12:18:11;;;;;;;3.78;1.42;;;6.10;99.90;;;;;;4232776;27;20055;-85